createdAt,value
2022-09-23T00:01:12.825Z,3.20
2022-09-23T00:03:42.569Z,2.55
2022-09-23T00:06:12.259Z,3.15
2022-09-23T00:08:39.980Z,3.13
2022-09-23T00:11:15.867Z,3.00
2022-09-23T00:13:46.185Z,3.00
2022-09-23T00:16:19.983Z,3.22
2022-09-23T00:18:46.504Z,2.92
2022-09-23T00:21:28.158Z,2.88
2022-09-23T00:23:58.748Z,2.78
2022-09-23T00:26:25.289Z,2.80
2022-09-23T00:28:54.353Z,2.53
2022-09-23T00:31:23.783Z,2.50
2022-09-23T00:34:04.414Z,2.50
2022-09-23T00:36:32.519Z,2.22
2022-09-23T00:38:59.134Z,2.22
2022-09-23T00:41:26.555Z,2.42
2022-09-23T00:43:59.670Z,2.15
2022-09-23T00:46:37.237Z,2.15
2022-09-23T00:49:10.968Z,2.25
2022-09-23T00:51:43.852Z,2.17
2022-09-23T00:54:11.391Z,2.25
2022-09-23T00:56:41.575Z,2.22
2022-09-23T00:59:09.863Z,1.77
2022-09-23T01:01:37.777Z,2.00
2022-09-23T01:04:05.308Z,1.77
2022-09-23T01:06:33.681Z,2.10
2022-09-23T01:09:02.156Z,1.90
2022-09-23T01:11:47.932Z,2.13
2022-09-23T01:14:28.901Z,1.70
2022-09-23T01:17:02.108Z,2.00
2022-09-23T01:20:17.233Z,1.90
2022-09-23T01:22:54.773Z,2.50
2022-09-23T01:25:24.415Z,2.28
2022-09-23T01:27:58.731Z,2.85
2022-09-23T01:30:49.492Z,1.92
2022-09-23T01:33:29.815Z,1.73
2022-09-23T01:36:19.038Z,1.98
2022-09-23T01:39:00.290Z,1.70
2022-09-23T01:41:51.652Z,1.70
2022-09-23T01:44:43.251Z,2.28
2022-09-23T01:47:19.454Z,1.95
2022-09-23T01:50:02.767Z,1.92
2022-09-23T01:52:44.623Z,2.83
2022-09-23T01:55:19.158Z,2.10
2022-09-23T01:58:00.488Z,2.25
2022-09-23T02:00:33.721Z,2.67
2022-09-23T02:03:14.072Z,1.92
2022-09-23T02:05:48.365Z,2.13
2022-09-23T02:08:20.681Z,2.63
2022-09-23T02:10:58.374Z,2.70
2022-09-23T02:13:32.656Z,2.63
2022-09-23T02:16:03.787Z,2.50
2022-09-23T02:18:37.300Z,2.50
2022-09-23T02:21:10.508Z,2.58
2022-09-23T02:23:43.754Z,2.50
2022-09-23T02:26:27.085Z,2.30
2022-09-23T02:29:04.547Z,2.53
2022-09-23T02:31:55.475Z,2.58
2022-09-23T02:34:45.263Z,2.13
2022-09-23T02:37:23.496Z,2.92
2022-09-23T02:40:12.632Z,2.25
2022-09-23T02:43:03.149Z,2.75
2022-09-23T02:45:33.747Z,2.65
2022-09-23T02:48:08.333Z,2.80
2022-09-23T02:50:35.407Z,2.75
2022-09-23T02:53:02.366Z,2.40
2022-09-23T02:55:34.164Z,2.20
2022-09-23T02:58:02.281Z,2.45
2022-09-23T03:00:43.124Z,2.42
2022-09-23T03:03:31.233Z,2.15
2022-09-23T03:06:02.028Z,2.38
2022-09-23T03:08:51.103Z,2.03
2022-09-23T03:11:23.496Z,2.30
2022-09-23T03:14:17.034Z,2.28
2022-09-23T03:17:09.901Z,2.20
2022-09-23T03:19:44.533Z,1.50
2022-09-23T03:22:28.363Z,1.60
2022-09-23T03:24:59.173Z,1.70
2022-09-23T03:27:31.775Z,1.80
2022-09-23T03:29:59.202Z,2.05
2022-09-23T03:32:29.271Z,1.77
2022-09-23T03:35:00.364Z,1.70
2022-09-23T03:37:43.297Z,1.70
2022-09-23T03:40:20.367Z,2.05
2022-09-23T03:42:49.050Z,1.92
2022-09-23T03:45:20.636Z,1.60
2022-09-23T03:47:49.135Z,2.50
2022-09-23T03:50:17.410Z,1.80
2022-09-23T03:52:44.743Z,2.17
2022-09-23T03:55:15.730Z,2.10
2022-09-23T03:57:42.350Z,2.20
2022-09-23T04:00:10.022Z,2.20
2022-09-23T04:02:36.549Z,2.00
2022-09-23T04:05:03.539Z,1.80
2022-09-23T04:07:30.209Z,2.13
2022-09-23T04:09:56.900Z,1.77
2022-09-23T04:12:23.413Z,2.17
2022-09-23T04:14:49.939Z,2.20
2022-09-23T04:17:16.868Z,2.00
2022-09-23T04:19:43.585Z,2.20
2022-09-23T04:22:10.094Z,1.98
2022-09-23T04:24:38.348Z,2.70
2022-09-23T04:27:08.050Z,1.85
2022-09-23T04:29:34.591Z,2.40
2022-09-23T04:32:01.419Z,2.50
2022-09-23T04:34:27.957Z,2.58
2022-09-23T04:36:54.506Z,2.60
2022-09-23T04:39:25.562Z,2.38
2022-09-23T04:41:52.065Z,2.35
2022-09-23T04:44:20.360Z,2.22
2022-09-23T04:46:48.431Z,2.28
2022-09-23T04:49:16.617Z,2.22
2022-09-23T04:51:43.707Z,1.80
2022-09-23T04:54:13.617Z,1.80
2022-09-23T04:56:41.024Z,1.73
2022-09-23T04:59:07.993Z,2.25
2022-09-23T05:01:38.659Z,3.13
2022-09-23T05:04:08.637Z,2.75
2022-09-23T05:06:36.011Z,3.78
2022-09-23T05:09:10.380Z,3.75
2022-09-23T05:11:36.853Z,3.30
2022-09-23T05:14:03.535Z,3.13
2022-09-23T05:16:36.444Z,2.53
2022-09-23T05:19:04.114Z,2.30
2022-09-23T05:21:31.389Z,2.53
2022-09-23T05:24:03.239Z,2.65
2022-09-23T05:26:34.180Z,2.47
2022-09-23T05:29:01.008Z,2.22
2022-09-23T05:31:31.692Z,2.10
2022-09-23T05:34:01.960Z,2.25
2022-09-23T05:36:34.267Z,1.95
2022-09-23T05:39:06.161Z,2.45
2022-09-23T05:41:34.016Z,2.42
2022-09-23T05:44:00.984Z,2.30
2022-09-23T05:46:33.799Z,2.88
2022-09-23T05:49:05.483Z,2.50
2022-09-23T05:51:33.727Z,2.63
2022-09-23T05:54:03.058Z,2.05
2022-09-23T05:56:31.170Z,2.47
2022-09-23T05:59:01.697Z,2.38
2022-09-23T06:01:36.457Z,2.17
2022-09-23T06:04:05.254Z,2.10
2022-09-23T06:06:33.302Z,2.20
2022-09-23T06:09:00.685Z,1.90
2022-09-23T06:11:30.543Z,1.98
2022-09-23T06:14:01.137Z,2.10
2022-09-23T06:16:34.422Z,1.63
2022-09-23T06:19:07.421Z,2.33
2022-09-23T06:21:40.674Z,1.90
2022-09-23T06:24:08.168Z,2.10
2022-09-23T06:26:37.783Z,1.80
2022-09-23T06:29:10.397Z,2.58
2022-09-23T06:31:37.181Z,2.25
2022-09-23T06:34:11.509Z,2.30
2022-09-23T06:36:46.825Z,2.35
2022-09-23T06:39:15.076Z,2.67
2022-09-23T06:41:42.374Z,2.70
2022-09-23T06:44:09.196Z,2.75
2022-09-23T06:46:36.892Z,2.22
2022-09-23T06:49:03.827Z,2.83
2022-09-23T06:51:30.656Z,2.33
2022-09-23T06:53:57.199Z,2.53
2022-09-23T06:56:24.723Z,2.38
2022-09-23T06:58:57.797Z,2.40
2022-09-23T07:01:24.813Z,2.20
2022-09-23T07:03:51.981Z,1.85
2022-09-23T07:06:20.265Z,2.10
2022-09-23T07:08:48.220Z,2.08
2022-09-23T07:11:15.764Z,2.00
2022-09-23T07:13:42.827Z,2.00
2022-09-23T07:16:10.957Z,1.83
2022-09-23T07:18:37.819Z,2.20
2022-09-23T07:21:20.336Z,1.80
2022-09-23T07:23:50.410Z,2.22
2022-09-23T07:26:18.079Z,2.63
2022-09-23T07:28:47.283Z,2.78
2022-09-23T07:31:24.172Z,2.50
2022-09-23T07:34:01.440Z,2.88
2022-09-23T07:36:31.013Z,2.83
2022-09-23T07:39:00.599Z,3.17
2022-09-23T07:41:30.772Z,2.70
2022-09-23T07:44:00.176Z,2.58
2022-09-23T07:46:29.016Z,3.08
2022-09-23T07:48:57.619Z,3.72
2022-09-23T07:51:35.530Z,3.15
2022-09-23T07:54:05.494Z,2.38
2022-09-23T07:56:31.997Z,2.60
2022-09-23T07:59:01.775Z,2.90
2022-09-23T08:01:35.535Z,3.05
2022-09-23T08:04:12.060Z,3.03
2022-09-23T08:06:49.677Z,3.05
2022-09-23T08:09:18.452Z,2.90
2022-09-23T08:11:51.028Z,3.10
2022-09-23T08:14:18.651Z,2.92
2022-09-23T08:16:47.106Z,2.67
2022-09-23T08:19:14.041Z,3.10
2022-09-23T08:21:41.878Z,2.85
2022-09-23T08:24:12.529Z,2.80
2022-09-23T08:26:39.030Z,2.90
2022-09-23T08:29:05.855Z,2.85
2022-09-23T08:31:32.485Z,2.85
2022-09-23T08:33:59.468Z,3.05
2022-09-23T08:36:34.723Z,2.47
2022-09-23T08:39:01.343Z,3.22
2022-09-23T08:42:16.349Z,2.92
2022-09-23T08:44:55.212Z,3.50
2022-09-23T08:47:50.911Z,2.83
2022-09-23T08:50:21.173Z,3.30
2022-09-23T08:52:53.977Z,2.90
2022-09-23T08:55:29.705Z,2.78
2022-09-23T09:01:07.010Z,3.22
2022-09-23T09:03:44.683Z,2.60
2022-09-23T09:06:18.961Z,3.47
2022-09-23T09:08:55.457Z,3.53
2022-09-23T09:11:25.504Z,3.28
2022-09-23T09:14:25.374Z,3.33
2022-09-23T09:17:01.873Z,3.22
2022-09-23T09:19:37.585Z,3.10
2022-09-23T09:24:35.847Z,3.00
2022-09-23T09:27:13.679Z,3.08
2022-09-23T09:29:44.951Z,3.17
2022-09-23T09:32:46.509Z,3.00
2022-09-23T09:35:22.290Z,3.00
2022-09-23T09:37:49.068Z,2.70
2022-09-23T09:40:17.314Z,2.85
2022-09-23T09:42:48.574Z,2.83
2022-09-23T09:45:41.714Z,2.92
2022-09-23T09:48:34.431Z,2.78
2022-09-23T09:51:20.577Z,2.65
2022-09-23T09:56:16.504Z,2.70
2022-09-23T09:58:46.788Z,2.58
2022-09-23T10:01:40.639Z,2.72
2022-09-23T10:04:29.895Z,2.38
2022-09-23T10:07:14.195Z,2.50
2022-09-23T10:09:51.235Z,2.70
2022-09-23T10:12:22.650Z,2.42
2022-09-23T10:14:55.354Z,2.65
2022-09-23T10:17:23.359Z,2.22
2022-09-23T10:20:02.737Z,2.40
2022-09-23T10:22:36.402Z,2.20
2022-09-23T10:25:08.056Z,2.05
2022-09-23T10:27:36.431Z,1.85
2022-09-23T10:30:23.489Z,2.30
2022-09-23T10:32:52.133Z,2.03
2022-09-23T10:35:22.615Z,2.10
2022-09-23T10:37:52.334Z,1.90
2022-09-23T10:40:56.356Z,1.67
2022-09-23T10:44:17.988Z,1.70
2022-09-23T10:47:29.681Z,1.80
2022-09-23T10:50:15.680Z,1.70
2022-09-23T10:55:25.000Z,1.30
2022-09-23T10:58:14.211Z,1.58
2022-09-23T11:01:11.597Z,1.50
2022-09-23T11:04:01.361Z,1.55
2022-09-23T11:06:34.700Z,1.65
2022-09-23T11:09:40.711Z,1.52
2022-09-23T11:12:44.243Z,1.30
2022-09-23T11:15:22.652Z,1.40
2022-09-23T11:18:08.415Z,1.45
2022-09-23T11:20:40.708Z,1.92
2022-09-23T11:23:26.540Z,1.50
2022-09-23T11:28:55.105Z,1.35
2022-09-23T11:33:59.414Z,1.08
2022-09-23T11:36:41.179Z,1.35
2022-09-23T11:39:31.335Z,0.90
2022-09-23T11:42:00.445Z,1.30
2022-09-23T11:44:35.241Z,1.42
2022-09-23T11:47:09.297Z,1.50
2022-09-23T11:49:45.456Z,1.27
2022-09-23T11:52:24.901Z,1.30
2022-09-23T11:55:18.915Z,1.23
2022-09-23T11:57:49.646Z,1.27
2022-09-23T12:00:23.090Z,1.30
2022-09-23T12:03:06.089Z,1.45
2022-09-23T12:05:46.443Z,1.45
2022-09-23T12:08:22.226Z,1.15
2022-09-23T12:11:03.781Z,1.38
2022-09-23T12:13:56.115Z,1.48
2022-09-23T12:16:42.688Z,1.30
2022-09-23T12:19:41.537Z,1.23
2022-09-23T12:22:28.838Z,1.45
2022-09-23T12:25:13.813Z,1.25
2022-09-23T12:27:45.769Z,1.48
2022-09-23T12:30:19.324Z,1.20
2022-09-23T12:32:48.523Z,1.60
2022-09-23T12:35:33.773Z,1.27
2022-09-23T12:38:03.468Z,1.13
2022-09-23T12:40:34.769Z,1.50
2022-09-23T12:43:02.467Z,1.20
2022-09-23T12:45:32.771Z,1.20
2022-09-23T12:48:18.108Z,1.38
2022-09-23T12:51:07.920Z,1.30
2022-09-23T12:53:34.437Z,1.20
2022-09-23T12:56:37.376Z,1.35
2022-09-23T12:59:17.419Z,1.48
2022-09-23T13:01:46.337Z,1.40
2022-09-23T13:04:49.782Z,1.50
2022-09-23T13:07:32.768Z,1.30
2022-09-23T13:10:21.997Z,1.42
2022-09-23T13:12:55.191Z,1.33
2022-09-23T13:15:34.001Z,1.70
2022-09-23T13:18:22.487Z,1.38
2022-09-23T13:20:51.034Z,1.60
2022-09-23T13:23:21.309Z,1.30
2022-09-23T13:25:51.680Z,1.15
2022-09-23T13:28:55.884Z,1.40
2022-09-23T13:31:24.206Z,1.35
2022-09-23T13:33:56.740Z,1.30
2022-09-23T13:36:23.511Z,1.40
2022-09-23T13:38:50.160Z,1.30
2022-09-23T13:41:25.232Z,1.50
2022-09-23T13:44:00.566Z,1.50
2022-09-23T13:49:00.879Z,1.23
2022-09-23T13:51:39.261Z,1.30
2022-09-23T13:54:09.243Z,1.30
2022-09-23T13:56:37.830Z,1.73
2022-09-23T13:59:31.461Z,1.23
2022-09-23T14:02:13.201Z,1.27
2022-09-23T14:04:40.139Z,1.20
2022-09-23T14:07:08.559Z,1.45
2022-09-23T14:09:36.632Z,1.48
2022-09-23T14:12:07.794Z,1.40
2022-09-23T14:14:37.706Z,1.48
2022-09-23T14:17:06.977Z,1.50
2022-09-23T14:19:37.501Z,1.52
2022-09-23T14:22:04.136Z,1.10
2022-09-23T14:24:30.532Z,1.55
2022-09-23T14:27:22.226Z,1.17
2022-09-23T14:29:49.665Z,1.48
2022-09-23T14:32:27.397Z,1.40
2022-09-23T14:35:00.350Z,1.35
2022-09-23T14:37:57.545Z,1.40
2022-09-23T14:41:14.592Z,1.45
2022-09-23T14:43:49.092Z,1.30
2022-09-23T14:46:20.888Z,1.30
2022-09-23T14:49:07.909Z,1.30
2022-09-23T14:51:51.092Z,1.40
2022-09-23T14:54:41.529Z,1.45
2022-09-23T14:57:23.331Z,1.15
2022-09-23T14:59:54.733Z,1.23
2022-09-23T15:02:27.870Z,1.45
2022-09-23T15:05:10.543Z,1.20
2022-09-23T15:07:38.245Z,1.50
2022-09-23T15:10:29.390Z,1.40
2022-09-23T15:13:08.209Z,1.30
2022-09-23T15:15:35.999Z,1.88
2022-09-23T15:18:19.443Z,1.33
2022-09-23T15:20:52.562Z,1.98
2022-09-23T15:23:36.505Z,1.60
2022-09-23T15:26:09.325Z,1.40
2022-09-23T15:28:39.075Z,1.63
2022-09-23T15:31:10.016Z,1.60
2022-09-23T15:33:38.459Z,1.20
2022-09-23T15:36:05.191Z,1.70
2022-09-23T15:38:31.798Z,1.52
2022-09-23T15:40:58.488Z,1.38
2022-09-23T15:43:27.187Z,1.70
2022-09-23T15:46:06.883Z,1.60
2022-09-23T15:48:52.337Z,1.20
2022-09-23T15:51:25.402Z,1.50
2022-09-23T15:53:52.255Z,1.38
2022-09-23T15:56:18.723Z,1.40
2022-09-23T15:58:45.411Z,1.50
2022-09-23T16:01:21.696Z,1.60
2022-09-23T16:03:48.405Z,1.30
2022-09-23T16:06:20.367Z,1.63
2022-09-23T16:08:47.414Z,1.52
2022-09-23T16:11:26.536Z,1.45
2022-09-23T16:13:53.503Z,1.20
2022-09-23T16:16:21.266Z,1.60
2022-09-23T16:18:50.439Z,1.50
2022-09-23T16:21:20.110Z,1.45
2022-09-23T16:23:49.290Z,1.60
2022-09-23T16:26:22.538Z,1.65
2022-09-23T16:28:50.807Z,1.42
2022-09-23T16:31:17.913Z,1.40
2022-09-23T16:33:54.955Z,1.25
2022-09-23T16:36:27.623Z,1.42
2022-09-23T16:38:57.847Z,1.30
2022-09-23T16:41:26.077Z,1.58
2022-09-23T16:43:53.517Z,1.48
2022-09-23T16:46:21.292Z,1.67
2022-09-23T16:48:52.678Z,1.73
2022-09-23T16:51:22.648Z,1.90
2022-09-23T16:53:51.037Z,2.00
2022-09-23T16:56:25.718Z,1.90
2022-09-23T16:58:55.196Z,1.70
2022-09-23T17:01:42.863Z,1.70
2022-09-23T17:04:12.423Z,1.88
2022-09-23T17:06:49.042Z,1.70
2022-09-23T17:09:18.798Z,2.10
2022-09-23T17:11:48.251Z,1.80
2022-09-23T17:14:19.535Z,1.70
2022-09-23T17:16:46.052Z,2.28
2022-09-23T17:19:12.711Z,1.60
2022-09-23T17:21:41.229Z,2.10
2022-09-23T17:24:07.929Z,1.60
2022-09-23T17:26:38.263Z,2.45
2022-09-23T17:29:13.750Z,2.50
2022-09-23T17:31:40.352Z,2.35
2022-09-23T17:34:06.938Z,2.67
2022-09-23T17:36:35.228Z,2.30
2022-09-23T17:39:01.878Z,2.50
2022-09-23T17:41:29.755Z,3.15
2022-09-23T17:43:58.663Z,3.80
2022-09-23T17:46:25.427Z,3.03
2022-09-23T17:48:55.778Z,3.22
2022-09-23T17:51:25.183Z,2.90
2022-09-23T17:53:54.069Z,2.67
2022-09-23T17:56:21.560Z,3.00
2022-09-23T17:58:49.765Z,2.75
2022-09-23T18:01:20.148Z,2.70
2022-09-23T18:03:47.436Z,2.78
2022-09-23T18:06:21.356Z,2.60
2022-09-23T18:08:49.858Z,2.60
2022-09-23T18:11:27.388Z,2.53
2022-09-23T18:13:56.721Z,2.25
2022-09-23T18:16:35.968Z,3.13
2022-09-23T18:19:03.764Z,3.05
2022-09-23T18:21:38.480Z,2.45
2022-09-23T18:27:05.901Z,2.80
2022-09-23T18:29:34.250Z,2.90
2022-09-23T18:32:01.359Z,2.80
2022-09-23T18:34:28.775Z,3.10
2022-09-23T18:36:56.210Z,2.40
2022-09-23T18:39:22.767Z,2.50
2022-09-23T18:41:51.391Z,2.50
2022-09-23T18:44:19.157Z,2.58
2022-09-23T18:46:47.934Z,2.42
2022-09-23T18:49:33.373Z,2.42
2022-09-23T18:51:59.921Z,2.70
2022-09-23T18:54:28.255Z,2.20
2022-09-23T18:57:01.230Z,2.30
2022-09-23T18:59:29.818Z,2.22
2022-09-23T19:01:56.568Z,2.42
2022-09-23T19:04:25.294Z,2.60
2022-09-23T19:06:52.240Z,2.38
2022-09-23T19:09:22.500Z,2.70
2022-09-23T19:11:54.353Z,2.40
2022-09-23T19:14:21.444Z,2.65
2022-09-23T19:16:49.295Z,2.58
2022-09-23T19:19:16.015Z,2.33
2022-09-23T19:21:45.052Z,2.97
2022-09-23T19:24:14.444Z,2.65
2022-09-23T19:26:42.697Z,2.70
2022-09-23T19:29:14.479Z,2.90
2022-09-23T19:31:42.186Z,3.20
2022-09-23T19:34:19.533Z,3.35
2022-09-23T19:36:47.718Z,3.08
2022-09-23T19:39:25.257Z,3.03
2022-09-23T19:41:58.789Z,2.88
2022-09-23T19:44:28.509Z,2.92
2022-09-23T19:46:57.037Z,2.90
2022-09-23T19:49:25.118Z,2.72
2022-09-23T19:51:56.070Z,2.80
2022-09-23T19:54:23.428Z,2.65
2022-09-23T19:56:50.411Z,2.80
2022-09-23T19:59:19.064Z,2.80
2022-09-23T20:01:48.427Z,3.40
2022-09-23T20:04:16.159Z,3.10
2022-09-23T20:06:43.331Z,2.50
2022-09-23T20:09:10.009Z,2.72
2022-09-23T20:11:36.777Z,2.92
2022-09-23T20:14:10.166Z,2.63
2022-09-23T20:16:37.358Z,2.50
2022-09-23T20:19:06.272Z,2.60
2022-09-23T20:21:35.482Z,2.67
2022-09-23T20:24:05.307Z,2.80
2022-09-23T20:26:50.542Z,2.65
2022-09-23T20:29:17.071Z,2.63
2022-09-23T20:31:43.753Z,2.50
2022-09-23T20:34:11.261Z,2.53
2022-09-23T20:36:40.950Z,2.20
2022-09-23T20:39:09.613Z,2.17
2022-09-23T20:41:40.186Z,2.22
2022-09-23T20:44:12.678Z,2.80
2022-09-23T20:46:45.290Z,2.50
2022-09-23T20:49:20.910Z,2.47
2022-09-23T20:51:48.755Z,2.60
2022-09-23T20:54:19.286Z,2.42
2022-09-23T20:56:52.847Z,2.65
2022-09-23T20:59:19.539Z,2.80
2022-09-23T21:01:46.536Z,2.78
2022-09-23T21:04:13.511Z,3.05
2022-09-23T21:06:40.059Z,2.97
2022-09-23T21:09:06.999Z,3.15
2022-09-23T21:11:40.148Z,2.78
2022-09-23T21:14:06.793Z,2.92
2022-09-23T21:16:33.420Z,2.90
2022-09-23T21:19:02.388Z,3.00
2022-09-23T21:21:29.137Z,2.70
2022-09-23T21:24:11.671Z,2.83
2022-09-23T21:26:56.155Z,2.55
2022-09-23T21:29:23.466Z,2.80
2022-09-23T21:31:50.029Z,3.08
2022-09-23T21:34:18.480Z,3.30
2022-09-23T21:36:48.038Z,3.50
2022-09-23T21:39:15.071Z,3.30
2022-09-23T21:41:44.470Z,3.00
2022-09-23T21:44:12.005Z,2.83
2022-09-23T21:46:38.740Z,2.80
2022-09-23T21:49:09.779Z,3.08
2022-09-23T21:51:40.473Z,2.95
2022-09-23T21:54:14.574Z,2.45
2022-09-23T21:56:41.806Z,2.97
2022-09-23T21:59:08.726Z,2.88
2022-09-23T22:01:38.622Z,3.03
2022-09-23T22:04:17.605Z,3.00
2022-09-23T22:06:47.086Z,3.20
2022-09-23T22:09:16.692Z,3.00
2022-09-23T22:12:04.117Z,4.20
2022-09-23T22:14:31.168Z,3.65
2022-09-23T22:17:03.798Z,3.58
2022-09-23T22:19:35.511Z,3.33
2022-09-23T22:22:06.778Z,3.33
2022-09-23T22:24:33.401Z,3.90
2022-09-23T22:27:01.720Z,4.18
2022-09-23T22:29:46.850Z,3.88
2022-09-23T22:32:32.276Z,4.03
2022-09-23T22:34:58.763Z,3.47
2022-09-23T22:37:28.224Z,3.35
2022-09-23T22:39:56.817Z,3.75
2022-09-23T22:42:23.785Z,3.08
2022-09-23T22:44:51.216Z,3.35
2022-09-23T22:47:21.401Z,3.08
2022-09-23T22:49:48.694Z,3.67
2022-09-23T22:52:21.083Z,4.03
2022-09-23T22:54:48.078Z,4.07
2022-09-23T22:57:15.335Z,3.80
2022-09-23T22:59:47.946Z,3.25
2022-09-23T23:02:19.600Z,3.38
2022-09-23T23:04:47.720Z,3.80
2022-09-23T23:07:20.318Z,4.10
2022-09-23T23:09:55.163Z,4.20
2022-09-23T23:12:21.757Z,4.10
2022-09-23T23:14:49.113Z,3.42
2022-09-23T23:17:17.094Z,3.88
2022-09-23T23:19:43.802Z,3.80
2022-09-23T23:22:12.654Z,4.35
2022-09-23T23:24:39.325Z,3.53
2022-09-23T23:27:05.858Z,3.72
2022-09-23T23:29:32.387Z,4.22
2022-09-23T23:32:03.341Z,3.97
2022-09-23T23:34:29.856Z,3.63
2022-09-23T23:36:56.404Z,4.10
2022-09-23T23:39:26.221Z,4.53
2022-09-23T23:41:55.258Z,5.30
2022-09-23T23:44:23.875Z,4.43
2022-09-23T23:46:50.746Z,4.20
2022-09-23T23:49:17.339Z,3.72
2022-09-23T23:51:43.899Z,3.90
2022-09-23T23:54:16.181Z,3.45
2022-09-23T23:56:43.093Z,3.35
2022-09-23T23:59:09.629Z,4.03
